B. E. Lindholm — WCY9878 — position and weather

sailwx.info

Track history (hours):
 
Tides and Currents Weather Stations Pressure Air Temp Water Temp Dewpoint Dewpoint Depression Visibility Wind Speed Wind Dir Waves Ship Positions

B. E. Lindholm

Owner: WEEKS MARINE, INC., CRANFORD, NJ. More information available from US FCC via Universal Licensing System.

Last reported at 2018-Jan-23 03:22 UTC. Time now 2018-Jan-23 20:13 UTC.
Position N 39°19' W 074°24'.

Length 91 m; draft 5.2 m.

Type: Dredging. MMSI: 368954410.

Date/timePositionNaut miles runAvg speedWind from/ knotsBaromVisibWave heightAir tempDewpointWater temp
2018-Jan-23 03:22N 39°19' W 074°24'1 0.7
2018-Jan-23 02:05N 39°19' W 074°23'310.4
2018-Jan-23 01:46N 39°18' W 074°27'2 8.5
2018-Jan-23 01:30N 39°18' W 074°29'1 1.3
2018-Jan-23 00:59N 39°18' W 074°30'  
2018-Jan-20 06:54N 39°19' W 074°25'4 9.9
2018-Jan-20 06:27N 39°17' W 074°30'1 0.3
2018-Jan-20 03:14N 39°16' W 074°29'0 1.0
2018-Jan-20 03:00N 39°16' W 074°29'1 1.8
2018-Jan-20 02:30N 39°15' W 074°30'2 0.2
2018-Jan-19 14:03N 39°17' W 074°30'0 3.3
2018-Jan-19 14:00N 39°18' W 074°30'0 0.0
2018-Jan-19 09:23N 39°18' W 074°30'0 0.0
2018-Jan-18 12:59N 39°18' W 074°30'0 0.1
2018-Jan-18 11:57N 39°18' W 074°30'2 4.1
2018-Jan-18 11:24N 39°18' W 074°27'2 0.9
2018-Jan-18 09:15N 39°18' W 074°30'0 0.8
2018-Jan-18 09:00N 39°18' W 074°30'3 1.7
2018-Jan-18 07:31N 39°18' W 074°27'2 1.2
2018-Jan-18 05:45N 39°19' W 074°24'5 0.9
2018-Jan-18 00:26N 39°18' W 074°30'0 0.0
2018-Jan-17 23:56N 39°18' W 074°30'  
Track history (hours):
 
Tides and Currents Weather Stations Pressure Air Temp Water Temp Dewpoint Dewpoint Depression Visibility Wind Speed Wind Dir Waves Ship Positions

B. E. Lindholm

Owner: WEEKS MARINE, INC., CRANFORD, NJ. More information available from US FCC via Universal Licensing System.

Last reported at 2018-Jan-23 03:22 UTC. Time now 2018-Jan-23 20:13 UTC.
Position N 39°19' W 074°24'.

Length 91 m; draft 5.2 m.

Type: Dredging. MMSI: 368954410.

Date/timePositionNaut miles runAvg speedWind from/ knotsBaromVisibWave heightAir tempDewpointWater temp
2018-Jan-23 03:22N 39°19' W 074°24'1 0.7
2018-Jan-23 02:05N 39°19' W 074°23'310.4
2018-Jan-23 01:46N 39°18' W 074°27'2 8.5
2018-Jan-23 01:30N 39°18' W 074°29'1 1.3
2018-Jan-23 00:59N 39°18' W 074°30'  
2018-Jan-20 06:54N 39°19' W 074°25'4 9.9
2018-Jan-20 06:27N 39°17' W 074°30'1 0.3
2018-Jan-20 03:14N 39°16' W 074°29'0 1.0
2018-Jan-20 03:00N 39°16' W 074°29'1 1.8
2018-Jan-20 02:30N 39°15' W 074°30'2 0.2
2018-Jan-19 14:03N 39°17' W 074°30'0 3.3
2018-Jan-19 14:00N 39°18' W 074°30'0 0.0
2018-Jan-19 09:23N 39°18' W 074°30'0 0.0
2018-Jan-18 12:59N 39°18' W 074°30'0 0.1
2018-Jan-18 11:57N 39°18' W 074°30'2 4.1
2018-Jan-18 11:24N 39°18' W 074°27'2 0.9
2018-Jan-18 09:15N 39°18' W 074°30'0 0.8
2018-Jan-18 09:00N 39°18' W 074°30'3 1.7
2018-Jan-18 07:31N 39°18' W 074°27'2 1.2
2018-Jan-18 05:45N 39°19' W 074°24'5 0.9
2018-Jan-18 00:26N 39°18' W 074°30'0 0.0
2018-Jan-17 23:56N 39°18' W 074°30'  

Dump ship's entire track history